createdAt,value
2023-01-03T00:01:25.922Z,2.17
2023-01-03T00:02:58.214Z,2.17
2023-01-03T00:04:30.308Z,2.14
2023-01-03T00:06:02.335Z,2.11
2023-01-03T00:07:34.669Z,2.08
2023-01-03T00:09:16.415Z,2.07
2023-01-03T00:10:48.382Z,1.97
2023-01-03T00:12:30.711Z,1.91
2023-01-03T00:14:03.389Z,1.95
2023-01-03T00:15:36.490Z,1.97
2023-01-03T00:17:09.752Z,1.99
2023-01-03T00:18:41.769Z,1.98
2023-01-03T00:20:15.938Z,2.01
2023-01-03T00:21:48.192Z,1.98
2023-01-03T00:23:20.443Z,1.96
2023-01-03T00:24:53.584Z,1.99
2023-01-03T00:26:25.582Z,1.98
2023-01-03T00:27:57.631Z,1.96
2023-01-03T00:29:29.761Z,1.97
2023-01-03T00:31:10.148Z,2.03
2023-01-03T00:32:42.279Z,2.01
2023-01-03T00:34:14.376Z,2.03
2023-01-03T00:35:46.391Z,2.03
2023-01-03T00:37:18.430Z,2.03
2023-01-03T00:38:50.530Z,2.04
2023-01-03T00:40:22.546Z,2.02
2023-01-03T00:41:54.997Z,2.02
2023-01-03T00:43:29.887Z,2.01
2023-01-03T00:45:01.865Z,1.99
2023-01-03T00:46:34.403Z,1.95
2023-01-03T00:48:06.625Z,1.91
2023-01-03T00:49:38.642Z,1.89
2023-01-03T00:51:15.266Z,1.92
2023-01-03T00:52:47.371Z,1.88
2023-01-03T00:54:19.361Z,1.87
2023-01-03T00:55:51.319Z,1.87
2023-01-03T00:57:23.348Z,1.86
2023-01-03T00:58:55.641Z,1.88
2023-01-03T01:00:27.583Z,1.84
2023-01-03T01:01:59.705Z,1.89
2023-01-03T01:03:31.912Z,1.92
2023-01-03T01:05:04.107Z,1.93
2023-01-03T01:06:40.381Z,1.97
2023-01-03T01:08:12.403Z,1.93
2023-01-03T01:09:44.673Z,1.95
2023-01-03T01:11:17.399Z,1.97
2023-01-03T01:12:49.574Z,1.97
2023-01-03T01:14:29.194Z,1.98
2023-01-03T01:16:06.998Z,2.01
2023-01-03T01:17:40.087Z,2.01
2023-01-03T01:19:12.368Z,2.01
2023-01-03T01:20:44.503Z,2.04
2023-01-03T01:22:16.518Z,2.04
2023-01-03T01:23:48.607Z,2.01
2023-01-03T01:25:20.654Z,2.00
2023-01-03T01:26:53.222Z,1.99
2023-01-03T01:28:25.343Z,1.95
2023-01-03T01:29:57.550Z,1.88
2023-01-03T01:31:29.758Z,1.81
2023-01-03T01:33:01.855Z,1.81
2023-01-03T01:34:33.978Z,1.83
2023-01-03T01:36:15.813Z,1.86
2023-01-03T01:37:47.860Z,1.82
2023-01-03T01:39:24.217Z,1.85
2023-01-03T01:40:56.189Z,1.80
2023-01-03T01:42:46.850Z,1.83
2023-01-03T01:44:54.106Z,1.86
2023-01-03T01:46:28.262Z,1.78
2023-01-03T01:48:03.458Z,1.72
2023-01-03T01:49:35.404Z,1.66
2023-01-03T01:51:09.520Z,1.66
2023-01-03T01:52:51.656Z,1.66
2023-01-03T01:54:24.708Z,1.59
2023-01-03T01:56:05.419Z,1.59
2023-01-03T01:57:39.102Z,1.58
2023-01-03T01:59:11.916Z,1.61
2023-01-03T02:00:44.695Z,1.60
2023-01-03T02:02:20.699Z,1.63
2023-01-03T02:04:04.702Z,1.67
2023-01-03T02:05:38.660Z,1.69
2023-01-03T02:07:11.028Z,1.65
2023-01-03T02:08:43.022Z,1.65
2023-01-03T02:10:15.036Z,1.67
2023-01-03T02:12:45.826Z,1.71
2023-01-03T02:14:49.892Z,1.73
2023-01-03T02:16:53.458Z,1.75
2023-01-03T02:18:34.760Z,1.72
2023-01-03T02:20:31.703Z,1.63
2023-01-03T02:22:15.658Z,1.52
2023-01-03T02:23:59.837Z,1.57
2023-01-03T02:25:54.994Z,1.59
2023-01-03T02:27:51.829Z,1.63
2023-01-03T02:29:51.189Z,1.64
2023-01-03T02:31:47.903Z,1.67
2023-01-03T02:33:49.305Z,1.69
2023-01-03T02:35:37.483Z,1.69
2023-01-03T02:37:47.534Z,1.68
2023-01-03T02:39:49.336Z,1.67
2023-01-03T02:43:09.458Z,1.69
2023-01-03T02:44:49.843Z,1.68
2023-01-03T02:46:28.226Z,1.66
2023-01-03T02:48:10.339Z,1.68
2023-01-03T02:49:50.093Z,1.67
2023-01-03T02:51:27.611Z,1.66
2023-01-03T02:53:03.991Z,1.66
2023-01-03T02:54:46.845Z,1.63
2023-01-03T02:56:24.941Z,1.63
2023-01-03T02:58:02.511Z,1.61
2023-01-03T02:59:58.060Z,1.61
2023-01-03T03:01:30.836Z,1.59
2023-01-03T03:03:06.877Z,1.63
2023-01-03T03:04:40.387Z,1.63
2023-01-03T03:06:18.520Z,1.62
2023-01-03T03:07:50.544Z,1.67
2023-01-03T03:09:22.690Z,1.66
2023-01-03T03:12:46.350Z,1.55
2023-01-03T03:14:23.338Z,1.65
2023-01-03T03:15:59.536Z,1.59
2023-01-03T03:17:32.177Z,1.57
2023-01-03T03:19:14.155Z,1.60
2023-01-03T03:21:04.793Z,1.56
2023-01-03T03:23:05.190Z,1.55
2023-01-03T03:24:52.239Z,1.52
2023-01-03T03:26:29.269Z,1.56
2023-01-03T03:28:23.286Z,1.55
2023-01-03T03:29:57.733Z,1.59
2023-01-03T03:31:42.163Z,1.61
2023-01-03T03:33:18.941Z,1.61
2023-01-03T03:34:51.211Z,1.58
2023-01-03T03:36:48.591Z,1.69
2023-01-03T03:38:29.445Z,1.74
2023-01-03T03:42:04.235Z,1.74
2023-01-03T03:44:01.860Z,1.74
2023-01-03T03:45:46.205Z,1.77
2023-01-03T03:47:53.785Z,1.70
2023-01-03T03:49:39.668Z,1.70
2023-01-03T03:51:15.814Z,1.73
2023-01-03T03:52:50.216Z,1.69
2023-01-03T03:54:23.837Z,1.71
2023-01-03T03:55:57.534Z,1.75
2023-01-03T03:57:30.489Z,1.70
2023-01-03T03:59:07.793Z,1.72
2023-01-03T04:00:41.198Z,1.70
2023-01-03T04:02:14.246Z,1.70
2023-01-03T04:03:47.975Z,1.69
2023-01-03T04:05:22.842Z,1.66
2023-01-03T04:06:55.037Z,1.60
2023-01-03T04:08:27.073Z,1.59
2023-01-03T04:09:59.161Z,1.59
2023-01-03T04:11:31.337Z,1.59
2023-01-03T04:13:04.519Z,1.61
2023-01-03T04:14:36.635Z,1.61
2023-01-03T04:16:08.822Z,1.59
2023-01-03T04:17:40.908Z,1.59
2023-01-03T04:19:12.914Z,1.59
2023-01-03T04:20:45.079Z,1.60
2023-01-03T04:22:17.027Z,1.59
2023-01-03T04:23:49.292Z,1.59
2023-01-03T04:25:21.327Z,1.58
2023-01-03T04:26:53.416Z,1.57
2023-01-03T04:28:25.481Z,1.57
2023-01-03T04:29:58.179Z,1.57
2023-01-03T04:31:30.210Z,1.56
2023-01-03T04:33:05.777Z,1.58
2023-01-03T04:34:37.769Z,1.59
2023-01-03T04:36:10.269Z,1.54
2023-01-03T04:37:42.258Z,1.51
2023-01-03T04:39:14.865Z,1.49
2023-01-03T04:40:47.188Z,1.47
2023-01-03T04:42:38.019Z,1.45
2023-01-03T04:47:30.692Z,1.38
2023-01-03T04:49:04.162Z,1.39
2023-01-03T04:50:36.266Z,1.40
2023-01-03T04:52:08.247Z,1.43
2023-01-03T04:53:40.214Z,1.45
2023-01-03T04:55:13.457Z,1.44
2023-01-03T04:56:45.467Z,1.47
2023-01-03T04:58:17.786Z,1.47
2023-01-03T04:59:49.897Z,1.45
2023-01-03T05:01:22.327Z,1.47
2023-01-03T05:02:54.450Z,1.49
2023-01-03T05:04:26.527Z,1.50
2023-01-03T05:06:02.751Z,1.53
2023-01-03T05:07:35.120Z,1.53
2023-01-03T05:09:07.195Z,1.53
2023-01-03T05:10:39.892Z,1.55
2023-01-03T05:12:12.630Z,1.54
2023-01-03T05:13:44.628Z,1.57
2023-01-03T05:15:16.617Z,1.59
2023-01-03T05:16:48.706Z,1.60
2023-01-03T05:18:20.837Z,1.60
2023-01-03T05:20:11.697Z,1.58
2023-01-03T05:22:02.383Z,1.54
2023-01-03T05:23:53.127Z,1.46
2023-01-03T05:25:43.664Z,1.39
2023-01-03T05:27:15.693Z,1.39
2023-01-03T05:28:50.833Z,1.39
2023-01-03T05:30:22.850Z,1.33
2023-01-03T05:31:57.517Z,1.38
2023-01-03T05:33:29.608Z,1.34
2023-01-03T05:35:01.639Z,1.37
2023-01-03T05:36:33.736Z,1.37
2023-01-03T05:38:05.831Z,1.34
2023-01-03T05:39:37.910Z,1.35
2023-01-03T05:41:10.454Z,1.34
2023-01-03T05:42:42.465Z,1.24
2023-01-03T05:44:14.465Z,1.15
2023-01-03T05:45:52.740Z,1.13
2023-01-03T05:47:26.037Z,1.03
2023-01-03T05:48:58.151Z,1.01
2023-01-03T05:50:30.192Z,0.99
2023-01-03T05:52:02.353Z,0.99
2023-01-03T05:53:34.396Z,1.03
2023-01-03T05:55:06.748Z,1.08
2023-01-03T05:56:38.864Z,1.09
2023-01-03T05:58:11.805Z,1.16
2023-01-03T05:59:44.856Z,1.20
2023-01-03T06:01:17.759Z,1.22
2023-01-03T06:02:49.872Z,1.23
2023-01-03T06:04:22.149Z,1.26
2023-01-03T06:05:54.281Z,1.29
2023-01-03T06:07:26.237Z,1.29
2023-01-03T06:08:58.269Z,1.28
2023-01-03T06:10:30.497Z,1.21
2023-01-03T06:12:02.754Z,1.16
2023-01-03T06:13:35.149Z,1.15
2023-01-03T06:15:07.677Z,1.15
2023-01-03T06:16:58.208Z,1.19
2023-01-03T06:18:30.370Z,1.27
2023-01-03T06:20:02.513Z,1.29
2023-01-03T06:21:35.124Z,1.32
2023-01-03T06:23:07.116Z,1.35
2023-01-03T06:24:39.084Z,1.38
2023-01-03T06:26:11.566Z,1.38
2023-01-03T06:27:43.541Z,1.40
2023-01-03T06:29:15.601Z,1.44
2023-01-03T06:30:47.645Z,1.45
2023-01-03T06:32:19.662Z,1.49
2023-01-03T06:33:51.800Z,1.54
2023-01-03T06:35:23.883Z,1.56
2023-01-03T06:36:55.854Z,1.62
2023-01-03T06:38:29.308Z,1.71
2023-01-03T06:40:01.653Z,1.74
2023-01-03T06:41:33.704Z,1.81
2023-01-03T06:43:05.821Z,1.87
2023-01-03T06:44:37.801Z,1.85
2023-01-03T06:46:29.911Z,1.92
2023-01-03T06:48:24.456Z,1.96
2023-01-03T06:50:31.825Z,1.97
2023-01-03T06:54:04.996Z,2.06
2023-01-03T06:55:39.796Z,2.10
2023-01-03T06:57:11.730Z,2.15
2023-01-03T06:58:59.144Z,2.22
2023-01-03T07:00:31.622Z,2.32
2023-01-03T07:02:05.750Z,2.43
2023-01-03T07:03:37.837Z,2.48
2023-01-03T07:05:10.117Z,2.55
2023-01-03T07:06:42.498Z,2.63
2023-01-03T07:08:14.777Z,2.71
2023-01-03T07:09:46.851Z,2.80
2023-01-03T07:11:18.948Z,2.88
2023-01-03T07:13:09.761Z,2.96
2023-01-03T07:14:41.785Z,3.04
2023-01-03T07:16:18.501Z,3.15
2023-01-03T07:17:50.611Z,3.20
2023-01-03T07:19:22.597Z,3.26
2023-01-03T07:20:54.809Z,3.35
2023-01-03T07:22:26.771Z,3.40
2023-01-03T07:24:02.082Z,3.47
2023-01-03T07:25:34.088Z,3.49
2023-01-03T07:27:09.966Z,3.56
2023-01-03T07:28:42.817Z,3.57
2023-01-03T07:30:15.171Z,3.59
2023-01-03T07:31:47.298Z,3.57
2023-01-03T07:33:19.656Z,3.61
2023-01-03T07:34:51.668Z,3.64
2023-01-03T07:36:23.745Z,3.66
2023-01-03T07:37:55.714Z,3.72
2023-01-03T07:39:27.868Z,3.78
2023-01-03T07:41:01.039Z,3.84
2023-01-03T07:42:51.554Z,3.94
2023-01-03T07:44:23.620Z,4.01
2023-01-03T07:45:55.773Z,4.09
2023-01-03T07:47:27.830Z,4.19
2023-01-03T07:49:07.885Z,4.28
2023-01-03T07:50:43.215Z,4.37
2023-01-03T07:52:15.344Z,4.47
2023-01-03T07:53:50.583Z,4.59
2023-01-03T07:55:25.014Z,4.74
2023-01-03T07:56:57.007Z,4.81
2023-01-03T07:58:29.103Z,4.97
2023-01-03T08:00:01.229Z,5.09
2023-01-03T08:01:39.374Z,5.25
2023-01-03T08:03:12.059Z,5.28
2023-01-03T08:04:44.289Z,5.39
2023-01-03T08:06:19.041Z,5.53
2023-01-03T08:07:52.063Z,5.60
2023-01-03T08:09:42.906Z,5.69
2023-01-03T08:11:34.110Z,5.82
2023-01-03T08:13:18.816Z,5.95
2023-01-03T08:14:50.985Z,6.03
2023-01-03T08:16:23.204Z,6.11
2023-01-03T08:17:55.410Z,6.21
2023-01-03T08:19:27.599Z,6.31
2023-01-03T08:20:59.736Z,6.39
2023-01-03T08:22:33.474Z,6.48
2023-01-03T08:24:05.611Z,6.60
2023-01-03T08:25:37.840Z,6.68
2023-01-03T08:27:09.943Z,6.77
2023-01-03T08:28:44.914Z,6.88
2023-01-03T08:30:16.894Z,6.95
2023-01-03T08:31:53.465Z,7.06
2023-01-03T08:33:27.457Z,7.17
2023-01-03T08:35:00.388Z,7.25
2023-01-03T08:36:40.218Z,7.39
2023-01-03T08:38:15.791Z,7.48
2023-01-03T08:39:52.372Z,7.61
2023-01-03T08:41:27.411Z,7.70
2023-01-03T08:42:59.536Z,7.76
2023-01-03T08:44:31.819Z,7.93
2023-01-03T08:46:05.908Z,8.06
2023-01-03T08:47:38.269Z,8.15
2023-01-03T08:49:11.207Z,8.26
2023-01-03T08:50:43.366Z,8.37
2023-01-03T08:52:15.569Z,8.44
2023-01-03T08:53:47.670Z,8.56
2023-01-03T08:55:19.990Z,8.63
2023-01-03T08:56:52.099Z,8.74
2023-01-03T08:58:24.223Z,8.85
2023-01-03T08:59:56.255Z,8.94
2023-01-03T09:01:28.594Z,9.04
2023-01-03T09:03:00.907Z,9.15
2023-01-03T09:04:33.111Z,9.25
2023-01-03T09:06:05.887Z,9.35
2023-01-03T09:07:38.039Z,9.51
2023-01-03T09:09:10.310Z,9.67
2023-01-03T09:10:47.538Z,9.82
2023-01-03T09:12:20.889Z,9.95
2023-01-03T09:13:55.840Z,10.02
2023-01-03T09:15:28.031Z,10.09
2023-01-03T09:17:00.084Z,10.15
2023-01-03T09:18:32.424Z,10.24
2023-01-03T09:20:07.062Z,10.35
2023-01-03T09:21:39.082Z,10.38
2023-01-03T09:23:11.178Z,10.47
2023-01-03T09:24:43.248Z,10.56
2023-01-03T09:26:15.306Z,10.64
2023-01-03T09:27:48.200Z,10.72
2023-01-03T09:29:20.255Z,10.79
2023-01-03T09:30:53.227Z,10.88
2023-01-03T09:32:25.268Z,10.94
2023-01-03T09:33:57.327Z,11.05
2023-01-03T09:35:29.362Z,11.18
2023-01-03T09:37:01.430Z,11.31
2023-01-03T09:38:33.491Z,11.40
2023-01-03T09:40:06.081Z,11.56
2023-01-03T09:41:39.460Z,11.72
2023-01-03T09:43:25.282Z,11.89
2023-01-03T09:44:59.085Z,12.02
2023-01-03T09:46:31.422Z,12.18
2023-01-03T09:48:05.097Z,12.22
2023-01-03T09:49:51.949Z,12.28
2023-01-03T09:51:54.375Z,12.32
2023-01-03T09:53:52.281Z,12.39
2023-01-03T09:56:04.529Z,12.51
2023-01-03T09:57:55.789Z,12.60
2023-01-03T09:59:54.241Z,12.80
2023-01-03T10:01:47.626Z,13.08
2023-01-03T10:03:50.265Z,13.17
2023-01-03T10:05:48.181Z,13.30
2023-01-03T10:07:44.501Z,13.43
2023-01-03T10:09:28.925Z,13.62
2023-01-03T10:11:10.068Z,13.74
2023-01-03T10:12:59.145Z,13.94
2023-01-03T10:14:44.609Z,14.22
2023-01-03T10:16:19.459Z,14.28
2023-01-03T10:17:54.475Z,14.29
2023-01-03T10:19:44.634Z,14.53
2023-01-03T10:21:27.673Z,14.56
2023-01-03T10:22:59.776Z,14.60
2023-01-03T10:24:33.525Z,14.75
2023-01-03T10:26:15.634Z,14.86
2023-01-03T10:27:54.200Z,14.92
2023-01-03T10:29:26.568Z,14.96
2023-01-03T10:31:10.718Z,15.11
2023-01-03T10:32:54.807Z,15.23
2023-01-03T10:34:26.841Z,15.22
2023-01-03T10:35:58.924Z,15.29
2023-01-03T10:37:30.960Z,15.36
2023-01-03T10:39:08.853Z,15.48
2023-01-03T10:40:44.664Z,15.52
2023-01-03T10:42:19.123Z,15.61
2023-01-03T10:44:01.470Z,15.68
2023-01-03T10:45:41.579Z,15.73
2023-01-03T10:47:16.863Z,15.78
2023-01-03T10:49:25.807Z,15.79
2023-01-03T10:50:46.444Z,15.77
2023-01-03T10:52:23.366Z,15.78
2023-01-03T10:53:57.160Z,15.81
2023-01-03T10:55:29.158Z,15.80
2023-01-03T10:57:01.251Z,15.83
2023-01-03T10:58:36.540Z,15.91
2023-01-03T11:00:35.067Z,16.11
2023-01-03T11:02:13.123Z,16.16
2023-01-03T11:03:51.127Z,16.11
2023-01-03T11:05:25.927Z,16.14
2023-01-03T11:07:13.694Z,16.25
2023-01-03T11:08:49.353Z,16.28
2023-01-03T11:10:21.910Z,16.38
2023-01-03T11:12:04.100Z,16.52
2023-01-03T11:13:41.415Z,16.57
2023-01-03T11:15:38.767Z,16.58
2023-01-03T11:17:12.873Z,16.52
2023-01-03T11:19:05.475Z,16.52
2023-01-03T11:21:07.432Z,16.56
2023-01-03T11:22:44.521Z,16.56
2023-01-03T11:24:43.677Z,16.57
2023-01-03T11:26:36.667Z,16.63
2023-01-03T11:28:30.318Z,16.73
2023-01-03T11:32:27.935Z,17.08
2023-01-03T11:35:11.508Z,17.14
2023-01-03T11:36:35.027Z,17.21
2023-01-03T11:38:14.129Z,17.31
2023-01-03T11:40:24.739Z,17.36
2023-01-03T11:42:35.364Z,17.49
2023-01-03T11:44:20.918Z,17.52
2023-01-03T11:46:17.994Z,17.54
2023-01-03T11:48:44.115Z,17.58
2023-01-03T11:50:28.984Z,17.69
2023-01-03T11:52:10.523Z,17.63
2023-01-03T11:54:24.187Z,17.67
2023-01-03T11:56:27.272Z,17.57
2023-01-03T11:58:29.070Z,17.52
2023-01-03T12:00:25.633Z,17.59
2023-01-03T12:02:22.507Z,17.63
2023-01-03T12:03:57.856Z,17.63
2023-01-03T12:05:48.571Z,17.51
2023-01-03T12:09:23.924Z,17.39
2023-01-03T12:11:11.214Z,17.47
2023-01-03T12:12:55.384Z,17.47
2023-01-03T12:14:32.497Z,17.47
2023-01-03T12:16:21.167Z,17.48
2023-01-03T12:18:24.161Z,17.46
2023-01-03T12:20:15.916Z,17.33
2023-01-03T12:22:18.121Z,17.35
2023-01-03T12:23:57.527Z,17.33
2023-01-03T12:25:37.815Z,17.28
2023-01-03T12:27:24.136Z,17.28
2023-01-03T12:29:12.278Z,17.31
2023-01-03T12:30:48.865Z,17.31
2023-01-03T12:32:40.362Z,17.31
2023-01-03T12:34:44.393Z,17.29
2023-01-03T12:36:37.826Z,17.30
2023-01-03T12:38:11.015Z,17.26
2023-01-03T12:39:43.071Z,17.11
2023-01-03T12:41:33.267Z,17.16
2023-01-03T12:43:05.281Z,17.14
2023-01-03T12:44:43.000Z,17.16
2023-01-03T12:46:30.651Z,17.11
2023-01-03T12:48:09.623Z,17.11
2023-01-03T12:49:47.202Z,17.09
2023-01-03T12:51:22.056Z,17.12
2023-01-03T12:53:10.693Z,17.20
2023-01-03T12:55:15.151Z,17.07
2023-01-03T12:57:11.820Z,17.15
2023-01-03T12:59:08.386Z,17.05
2023-01-03T13:01:15.978Z,17.03
2023-01-03T13:02:54.155Z,16.98
2023-01-03T13:04:29.394Z,17.04
2023-01-03T13:06:06.916Z,17.03
2023-01-03T13:07:40.884Z,17.08
2023-01-03T13:09:21.487Z,17.09
2023-01-03T13:10:55.566Z,17.04
2023-01-03T13:12:30.380Z,17.05
2023-01-03T13:14:15.637Z,17.06
2023-01-03T13:15:49.016Z,16.97
2023-01-03T13:17:26.762Z,16.94
2023-01-03T13:19:24.388Z,17.02
2023-01-03T13:20:56.815Z,16.92
2023-01-03T13:22:28.977Z,17.03
2023-01-03T13:24:01.050Z,16.98
2023-01-03T13:25:39.618Z,16.93
2023-01-03T13:27:23.218Z,16.84
2023-01-03T13:29:34.723Z,16.76
2023-01-03T13:31:18.333Z,16.75
2023-01-03T13:33:12.282Z,16.69
2023-01-03T13:34:44.361Z,16.58
2023-01-03T13:36:16.422Z,16.61
2023-01-03T13:37:55.157Z,16.59
2023-01-03T13:39:39.064Z,16.61
2023-01-03T13:41:36.581Z,16.49
2023-01-03T13:43:08.680Z,16.32
2023-01-03T13:44:40.680Z,16.26
2023-01-03T13:46:23.501Z,16.23
2023-01-03T13:47:56.146Z,16.18
2023-01-03T13:49:28.929Z,16.17
2023-01-03T13:51:14.586Z,16.18
2023-01-03T13:53:12.814Z,16.20
2023-01-03T13:54:59.017Z,16.18
2023-01-03T13:56:55.265Z,16.12
2023-01-03T13:58:52.221Z,16.16
2023-01-03T14:00:24.711Z,16.05
2023-01-03T14:02:03.352Z,15.96
2023-01-03T14:04:08.799Z,15.91
2023-01-03T14:06:04.825Z,15.90
2023-01-03T14:08:08.007Z,15.82
2023-01-03T14:09:49.071Z,15.71
2023-01-03T14:11:30.169Z,15.60
2023-01-03T14:13:39.043Z,15.58
2023-01-03T14:15:25.835Z,15.56
2023-01-03T14:16:59.360Z,15.51
2023-01-03T14:20:24.708Z,15.46
2023-01-03T14:22:26.594Z,15.36
2023-01-03T14:24:00.858Z,15.29
2023-01-03T14:25:44.160Z,15.29
2023-01-03T14:27:18.722Z,15.28
2023-01-03T14:28:55.318Z,15.14
2023-01-03T14:30:32.932Z,15.20
2023-01-03T14:32:05.547Z,15.17
2023-01-03T14:33:42.032Z,15.09
2023-01-03T14:35:34.038Z,15.12
2023-01-03T14:37:18.223Z,15.05
2023-01-03T14:38:53.914Z,14.95
2023-01-03T14:40:25.922Z,14.92
2023-01-03T14:41:58.405Z,14.87
2023-01-03T14:43:32.896Z,14.87
2023-01-03T14:45:07.370Z,14.87
2023-01-03T14:46:50.454Z,14.85
2023-01-03T14:49:58.839Z,14.73
2023-01-03T14:51:33.373Z,14.68
2023-01-03T14:53:05.496Z,14.59
2023-01-03T14:54:38.091Z,14.50
2023-01-03T14:56:11.124Z,14.43
2023-01-03T14:57:44.462Z,14.31
2023-01-03T14:59:17.388Z,14.26
2023-01-03T15:00:51.085Z,14.11
2023-01-03T15:02:24.055Z,13.96
2023-01-03T15:03:56.443Z,13.83
2023-01-03T15:05:38.777Z,13.71
2023-01-03T15:07:34.446Z,13.59
2023-01-03T15:09:22.692Z,13.44
2023-01-03T15:10:57.521Z,13.30
2023-01-03T15:12:31.458Z,13.15
2023-01-03T15:14:06.226Z,13.04
2023-01-03T15:15:39.300Z,12.92
2023-01-03T15:17:11.353Z,12.80
2023-01-03T15:18:44.769Z,12.70
2023-01-03T15:20:17.408Z,12.67
2023-01-03T15:21:49.918Z,12.53
2023-01-03T15:23:41.070Z,12.49
2023-01-03T15:25:34.132Z,12.35
2023-01-03T15:27:37.890Z,12.24
2023-01-03T15:29:21.140Z,12.10
2023-01-03T15:30:55.273Z,11.94
2023-01-03T15:32:27.335Z,11.83
2023-01-03T15:34:17.107Z,11.77
2023-01-03T15:35:51.569Z,11.66
2023-01-03T15:37:24.469Z,11.55
2023-01-03T15:38:56.573Z,11.47
2023-01-03T15:40:31.034Z,11.42
2023-01-03T15:44:18.214Z,11.26
2023-01-03T15:46:03.967Z,11.16
2023-01-03T15:47:36.347Z,11.02
2023-01-03T15:49:10.340Z,10.97
2023-01-03T15:50:51.656Z,10.89
2023-01-03T15:52:23.692Z,10.77
2023-01-03T15:53:55.715Z,10.68
2023-01-03T15:55:27.816Z,10.61
2023-01-03T15:57:02.816Z,10.62
2023-01-03T15:58:36.805Z,10.53
2023-01-03T16:00:11.414Z,10.46
2023-01-03T16:01:43.851Z,10.39
2023-01-03T16:03:18.158Z,10.34
2023-01-03T16:04:50.598Z,10.24
2023-01-03T16:06:22.614Z,10.12
2023-01-03T16:07:54.821Z,10.02
2023-01-03T16:09:26.766Z,9.96
2023-01-03T16:11:00.780Z,9.90
2023-01-03T16:12:37.005Z,9.84
2023-01-03T16:14:18.047Z,9.78
2023-01-03T16:15:50.982Z,9.71
2023-01-03T16:17:26.721Z,9.65
2023-01-03T16:18:58.865Z,9.56
2023-01-03T16:20:33.586Z,9.51
2023-01-03T16:22:34.026Z,9.42
2023-01-03T16:23:57.716Z,9.35
2023-01-03T16:25:29.815Z,9.27
2023-01-03T16:27:12.140Z,9.23
2023-01-03T16:28:44.187Z,9.16
2023-01-03T16:30:16.252Z,9.11
2023-01-03T16:31:48.354Z,9.07
2023-01-03T16:33:20.986Z,9.03
2023-01-03T16:34:53.237Z,8.99
2023-01-03T16:36:28.166Z,8.97
2023-01-03T16:38:00.277Z,8.87
2023-01-03T16:39:32.363Z,8.80
2023-01-03T16:41:04.647Z,8.76
2023-01-03T16:42:36.712Z,8.69
2023-01-03T16:44:08.755Z,8.67
2023-01-03T16:45:47.194Z,8.64
2023-01-03T16:47:26.226Z,8.58
2023-01-03T16:48:59.818Z,8.55
2023-01-03T16:50:32.894Z,8.51
2023-01-03T16:52:05.225Z,8.46
2023-01-03T16:53:38.969Z,8.45
2023-01-03T16:55:24.727Z,8.42
2023-01-03T16:56:56.865Z,8.35
2023-01-03T16:58:29.266Z,8.30
2023-01-03T17:00:01.384Z,8.24
2023-01-03T17:01:33.511Z,8.18
2023-01-03T17:03:05.905Z,8.11
2023-01-03T17:04:38.107Z,8.05
2023-01-03T17:06:37.654Z,8.05
2023-01-03T17:08:22.073Z,8.00
2023-01-03T17:09:54.080Z,7.90
2023-01-03T17:11:26.928Z,7.89
2023-01-03T17:12:59.957Z,7.84
2023-01-03T17:14:35.973Z,7.80
2023-01-03T17:16:26.011Z,7.77
2023-01-03T17:17:58.140Z,7.70
2023-01-03T17:21:33.928Z,7.71
2023-01-03T17:23:06.052Z,7.63
2023-01-03T17:24:38.153Z,7.56
2023-01-03T17:26:15.689Z,7.57
2023-01-03T17:27:52.314Z,7.49
2023-01-03T17:29:25.994Z,7.42
2023-01-03T17:30:57.995Z,7.36
2023-01-03T17:32:30.886Z,7.30
2023-01-03T17:34:16.363Z,7.27
2023-01-03T17:35:48.551Z,7.19
2023-01-03T17:37:21.750Z,7.12
2023-01-03T17:38:55.306Z,7.08
2023-01-03T17:40:33.205Z,7.07
2023-01-03T17:42:16.273Z,7.00
2023-01-03T17:43:48.472Z,6.93
2023-01-03T17:45:39.580Z,6.92
2023-01-03T17:47:36.279Z,6.93
2023-01-03T17:49:25.721Z,6.88
2023-01-03T17:50:58.380Z,6.79
2023-01-03T17:52:33.065Z,6.77
2023-01-03T17:54:05.204Z,6.73
2023-01-03T17:55:37.261Z,6.69
2023-01-03T17:57:11.303Z,6.62
2023-01-03T17:58:43.701Z,6.49
2023-01-03T18:00:22.009Z,6.37
2023-01-03T18:01:55.086Z,6.26
2023-01-03T18:03:27.312Z,6.17
2023-01-03T18:05:16.410Z,6.12
2023-01-03T18:07:00.334Z,6.14
2023-01-03T18:08:32.644Z,6.08
2023-01-03T18:10:06.955Z,6.04
2023-01-03T18:11:40.190Z,6.02
2023-01-03T18:13:27.343Z,6.03
2023-01-03T18:14:59.522Z,5.98
2023-01-03T18:16:33.765Z,5.96
2023-01-03T18:18:05.891Z,5.89
2023-01-03T18:19:40.857Z,5.92
2023-01-03T18:21:24.198Z,5.93
2023-01-03T18:22:56.287Z,5.83
2023-01-03T18:24:31.401Z,5.89
2023-01-03T18:26:06.317Z,5.88
2023-01-03T18:27:38.436Z,5.83
2023-01-03T18:29:14.933Z,5.87
2023-01-03T18:30:47.029Z,5.82
2023-01-03T18:32:29.213Z,5.87
2023-01-03T18:34:04.831Z,5.81
2023-01-03T18:35:38.353Z,5.77
2023-01-03T18:37:10.711Z,5.76
2023-01-03T18:38:43.081Z,5.75
2023-01-03T18:40:20.851Z,5.79
2023-01-03T18:41:53.164Z,5.77
2023-01-03T18:43:25.423Z,5.74
2023-01-03T18:44:57.451Z,5.75
2023-01-03T18:46:29.662Z,5.74
2023-01-03T18:48:01.883Z,5.74
2023-01-03T18:49:33.939Z,5.74
2023-01-03T18:51:06.130Z,5.71
2023-01-03T18:52:41.505Z,5.75
2023-01-03T18:54:18.241Z,5.73
2023-01-03T18:55:50.533Z,5.68
2023-01-03T18:57:23.156Z,5.66
2023-01-03T18:59:01.859Z,5.62
2023-01-03T19:00:34.695Z,5.60
2023-01-03T19:02:15.121Z,5.56
2023-01-03T19:03:47.487Z,5.54
2023-01-03T19:05:20.081Z,5.47
2023-01-03T19:06:52.735Z,5.38
2023-01-03T19:08:27.142Z,5.35
2023-01-03T19:09:59.591Z,5.24
2023-01-03T19:11:34.579Z,5.17
2023-01-03T19:13:06.752Z,5.04
2023-01-03T19:14:43.432Z,5.01
2023-01-03T19:16:20.629Z,4.98
2023-01-03T19:17:53.023Z,4.98
2023-01-03T19:19:26.584Z,4.92
2023-01-03T19:20:58.403Z,4.92
2023-01-03T19:22:33.788Z,4.79
2023-01-03T19:24:07.060Z,4.69
2023-01-03T19:25:39.039Z,4.62
2023-01-03T19:27:15.332Z,4.62
2023-01-03T19:28:47.435Z,4.59
2023-01-03T19:30:38.321Z,4.65
2023-01-03T19:32:22.955Z,4.67
2023-01-03T19:33:55.036Z,4.61
2023-01-03T19:35:27.374Z,4.59
2023-01-03T19:36:59.579Z,4.57
2023-01-03T19:38:31.643Z,4.56
2023-01-03T19:40:03.950Z,4.60
2023-01-03T19:42:02.010Z,4.62
2023-01-03T19:43:34.199Z,4.60
2023-01-03T19:45:14.659Z,4.66
2023-01-03T19:46:46.723Z,4.63
2023-01-03T19:48:22.058Z,4.67
2023-01-03T19:49:55.303Z,4.63
2023-01-03T19:51:27.412Z,4.59
2023-01-03T19:53:01.991Z,4.59
2023-01-03T19:54:33.974Z,4.59
2023-01-03T19:56:19.962Z,4.63
2023-01-03T19:57:52.037Z,4.57
2023-01-03T19:59:28.196Z,4.58
2023-01-03T20:01:00.651Z,4.53
2023-01-03T20:02:32.883Z,4.50
2023-01-03T20:04:05.469Z,4.50
2023-01-03T20:05:37.685Z,4.46
2023-01-03T20:07:14.135Z,4.42
2023-01-03T20:08:47.362Z,4.30
2023-01-03T20:10:24.935Z,4.22
2023-01-03T20:11:57.274Z,4.10
2023-01-03T20:13:29.257Z,4.05
2023-01-03T20:15:06.844Z,4.03
2023-01-03T20:16:39.528Z,4.00
2023-01-03T20:18:34.302Z,4.04
2023-01-03T20:20:07.237Z,3.95
2023-01-03T20:21:39.449Z,3.89
2023-01-03T20:23:15.425Z,3.93
2023-01-03T20:24:47.891Z,3.91
2023-01-03T20:26:23.348Z,3.96
2023-01-03T20:27:56.266Z,3.98
2023-01-03T20:29:28.466Z,3.99
2023-01-03T20:31:01.618Z,4.03
2023-01-03T20:32:33.668Z,4.01
2023-01-03T20:34:06.914Z,3.97
2023-01-03T20:37:31.341Z,3.99
2023-01-03T20:39:03.609Z,4.00
2023-01-03T20:40:35.846Z,3.97
2023-01-03T20:42:21.728Z,4.00
2023-01-03T20:43:53.820Z,3.95
2023-01-03T20:45:25.939Z,3.91
2023-01-03T20:46:58.916Z,3.91
2023-01-03T20:48:31.339Z,3.93
2023-01-03T20:50:04.149Z,3.93
2023-01-03T20:51:36.199Z,3.92
2023-01-03T20:53:16.726Z,4.00
2023-01-03T20:54:48.857Z,3.96
2023-01-03T20:56:21.272Z,3.95
2023-01-03T20:57:54.031Z,3.93
2023-01-03T20:59:26.328Z,3.93
2023-01-03T21:01:04.612Z,3.93
2023-01-03T21:02:37.022Z,3.93
2023-01-03T21:04:09.869Z,3.91
2023-01-03T21:30:08.960Z,3.22
2023-01-03T21:31:42.866Z,3.18
2023-01-03T21:33:18.517Z,3.21
2023-01-03T21:34:50.549Z,3.19
2023-01-03T21:36:29.073Z,3.26
2023-01-03T21:38:01.151Z,3.23
2023-01-03T21:39:33.240Z,3.26
2023-01-03T21:41:05.325Z,3.26
2023-01-03T21:43:01.455Z,3.21
2023-01-03T21:44:35.602Z,3.13
2023-01-03T21:46:08.057Z,3.09
2023-01-03T21:47:40.092Z,3.10
2023-01-03T21:49:12.171Z,3.13
2023-01-03T21:50:46.316Z,3.12
2023-01-03T21:52:18.404Z,3.12
2023-01-03T21:53:52.093Z,3.14
2023-01-03T21:55:24.844Z,3.10
2023-01-03T21:57:00.109Z,3.11
2023-01-03T21:58:32.219Z,3.14
2023-01-03T22:00:08.023Z,3.21
2023-01-03T22:02:00.116Z,3.20
2023-01-03T22:05:05.306Z,3.28
2023-01-03T22:06:39.081Z,3.31
2023-01-03T22:08:11.195Z,3.28
2023-01-03T22:10:01.696Z,3.29
2023-01-03T22:11:33.872Z,3.33
2023-01-03T22:13:07.616Z,3.36
2023-01-03T22:14:39.818Z,3.34
2023-01-03T22:16:11.925Z,3.33
2023-01-03T22:17:45.494Z,3.36
2023-01-03T22:19:17.277Z,3.41